Time;durP1;ratioP1;P1;durP2;ratioP2;P2;SDS_P1;SDS_P2;PMS_P1;PMS_P2;Temp;Humidity;BMP_temperature;BMP_pressure;BME280_temperature;BME280_humidity;BME280_pressure;Samples;Min_cycle;Max_cycle;Signal;HPM_P1;HPM_P2
2023/08/22 05:34:18;;;;;;;;;4.67;4.00;;;;;23.88;52.32;101691.16;5078332;27;46602;-75
2023/08/22 05:36:44;;;;;;;;;7.67;4.67;;;;;24.02;52.65;101702.50;5065606;27;45510;-71
2023/08/22 05:39:10;;;;;;;;;4.00;4.00;;;;;24.22;53.31;101695.19;5061196;27;45844;-70
2023/08/22 05:41:36;;;;;;;;;6.00;5.00;;;;;24.48;52.67;101702.59;5062236;28;45543;-71
2023/08/22 05:44:01;;;;;;;;;4.00;4.00;;;;;24.76;52.05;101702.56;5064405;27;45883;-71
2023/08/22 05:46:26;;;;;;;;;4.67;4.67;;;;;25.05;52.43;101701.53;5062425;28;45358;-71
2023/08/22 05:48:52;;;;;;;;;5.00;3.00;;;;;25.31;51.62;101706.19;5065290;27;47987;-71
2023/08/22 05:51:17;;;;;;;;;6.00;5.00;;;;;25.61;51.07;101714.94;5063467;28;50998;-70
2023/08/22 05:53:42;;;;;;;;;4.00;4.00;;;;;25.86;50.79;101719.66;5066803;28;55817;-74
2023/08/22 05:56:07;;;;;;;;;5.00;5.00;;;;;26.11;50.84;101726.09;5064568;28;55623;-74
2023/08/22 05:58:34;;;;;;;;;3.00;3.00;;;;;26.30;51.89;101724.16;5067776;28;45541;-73
2023/08/22 06:01:06;;;;;;;;;5.00;5.00;;;;;26.48;50.58;101728.66;5066765;27;45396;-72
2023/08/22 06:03:32;;;;;;;;;6.67;5.33;;;;;26.62;48.63;101719.00;5065071;28;45641;-71
2023/08/22 06:05:57;;;;;;;;;3.00;3.00;;;;;26.74;48.79;101725.84;5067893;28;45611;-70
2023/08/22 06:08:22;;;;;;;;;3.33;3.33;;;;;26.88;48.30;101726.19;5063590;28;45438;-70
2023/08/22 06:10:48;;;;;;;;;3.33;3.33;;;;;27.00;47.37;101730.34;5066323;28;55262;-70
2023/08/22 06:13:15;;;;;;;;;4.00;2.00;;;;;27.10;46.86;101736.47;5067236;28;45728;-71
2023/08/22 06:15:40;;;;;;;;;2.33;2.33;;;;;27.17;47.71;101731.19;5067443;27;45293;-70
2023/08/22 06:18:06;;;;;;;;;3.00;3.00;;;;;27.25;47.00;101733.06;5068280;28;51229;-71
2023/08/22 06:20:31;;;;;;;;;4.00;3.00;;;;;27.33;47.00;101730.38;5068055;28;45521;-71
2023/08/22 06:22:56;;;;;;;;;2.33;2.33;;;;;27.43;46.61;101734.78;5063837;28;47042;-71
2023/08/22 06:25:22;;;;;;;;;2.00;2.00;;;;;27.47;46.45;101719.78;5067046;28;53680;-71
2023/08/22 06:27:47;;;;;;;;;2.00;2.00;;;;;27.54;46.07;101733.59;5065556;27;45775;-70
2023/08/22 06:30:13;;;;;;;;;2.67;2.67;;;;;27.58;45.95;101732.19;5065623;28;45445;-71
2023/08/22 06:32:38;;;;;;;;;4.67;3.00;;;;;27.62;45.71;101728.13;5066897;27;46508;-71
2023/08/22 06:35:04;;;;;;;;;3.67;3.67;;;;;27.68;45.20;101741.09;5065226;28;45458;-71
2023/08/22 06:37:30;;;;;;;;;3.00;3.00;;;;;27.72;44.88;101741.59;5067729;27;45882;-71
2023/08/22 06:39:55;;;;;;;;;3.00;3.00;;;;;27.74;45.44;101745.88;5067061;28;50705;-71
2023/08/22 06:42:20;;;;;;;;;3.33;3.33;;;;;27.75;45.00;101735.81;5066755;28;53467;-72
2023/08/22 06:44:45;;;;;;;;;5.00;3.00;;;;;27.75;44.99;101763.09;5056878;28;55387;-72
2023/08/22 06:47:11;;;;;;;;;3.33;3.33;;;;;27.75;44.93;101763.09;5046123;28;51506;-71
2023/08/22 06:49:36;;;;;;;;;4.00;4.00;;;;;27.76;45.03;101762.06;5052145;28;51161;-71
2023/08/22 06:52:01;;;;;;;;;3.33;3.33;;;;;27.80;44.60;101757.09;5054099;28;51307;-71
2023/08/22 06:54:27;;;;;;;;;3.67;3.67;;;;;27.81;44.35;101751.47;5048360;28;46833;-69
2023/08/22 06:56:52;;;;;;;;;3.67;3.67;;;;;27.82;44.99;101758.63;5036037;28;45420;-69
2023/08/22 06:59:17;;;;;;;;;4.00;4.00;;;;;27.84;44.78;101753.84;5051812;28;45542;-69
2023/08/22 07:01:43;;;;;;;;;6.67;4.67;;;;;27.88;44.53;101760.66;5051585;28;47251;-70
2023/08/22 07:04:08;;;;;;;;;3.67;3.67;;;;;27.90;44.54;101755.03;5052804;28;48289;-72
2023/08/22 07:06:33;;;;;;;;;2.00;2.00;;;;;27.91;44.94;101762.19;5054163;28;45421;-72
2023/08/22 07:08:59;;;;;;;;;6.67;5.00;;;;;27.95;44.23;101768.16;5052169;28;46586;-72
2023/08/22 07:11:24;;;;;;;;;5.00;5.00;;;;;27.98;44.74;101776.84;5053080;28;53592;-71
2023/08/22 07:13:50;;;;;;;;;5.67;5.00;;;;;28.04;43.92;101775.31;5050057;28;45416;-74
2023/08/22 07:16:16;;;;;;;;;4.67;4.00;;;;;28.05;44.24;101768.81;5053231;28;45458;-74
2023/08/22 07:18:41;;;;;;;;;5.33;5.33;;;;;28.09;43.63;101775.63;5053919;28;45506;-74
2023/08/22 07:21:07;;;;;;;;;4.67;4.00;;;;;28.12;44.19;101780.72;5052457;28;50522;-72
2023/08/22 07:23:32;;;;;;;;;5.33;4.33;;;;;28.15;43.88;101771.34;5051514;28;45572;-72
2023/08/22 07:25:58;;;;;;;;;2.33;1.00;;;;;28.15;43.76;101768.59;5052429;28;45547;-72
2023/08/22 07:28:24;;;;;;;;;6.00;5.33;;;;;28.15;44.21;101764.00;5050802;28;45537;-72
2023/08/22 07:30:49;;;;;;;;;5.67;5.67;;;;;28.18;43.52;101764.66;5053823;28;45906;-72
2023/08/22 07:33:15;;;;;;;;;6.00;4.00;;;;;28.21;43.60;101759.72;5051750;28;45622;-71
2023/08/22 07:35:41;;;;;;;;;5.67;5.67;;;;;28.21;44.12;101767.94;5053404;28;46017;-72
2023/08/22 07:38:06;;;;;;;;;4.00;4.00;;;;;28.22;43.54;101763.28;5053270;28;46435;-72
2023/08/22 07:40:36;;;;;;;;;4.00;4.00;;;;;28.23;43.55;101748.63;5051677;28;46193;-72
2023/08/22 07:43:01;;;;;;;;;5.67;5.67;;;;;28.27;43.25;101747.28;5049113;28;45518;-74
2023/08/22 07:45:27;;;;;;;;;8.67;6.67;;;;;28.30;42.98;101751.53;5048605;28;45463;-75
2023/08/22 07:47:53;;;;;;;;;4.67;3.00;;;;;28.29;43.50;101742.50;5038453;28;45384;-74
2023/08/22 07:50:18;;;;;;;;;4.67;4.67;;;;;28.30;43.41;101749.66;5053018;28;45458;-74
2023/08/22 07:52:43;;;;;;;;;5.00;5.00;;;;;28.34;43.46;101747.41;5050881;28;45482;-74
2023/08/22 07:55:09;;;;;;;;;6.33;5.33;;;;;28.37;43.12;101750.63;5052411;28;45467;-71
2023/08/22 07:57:35;;;;;;;;;6.00;6.00;;;;;28.38;43.01;101752.38;5049566;28;45691;-74
2023/08/22 08:00:00;;;;;;;;;6.00;4.67;;;;;28.40;43.39;101754.88;5052052;28;45571;-72
2023/08/22 08:02:26;;;;;;;;;5.00;5.00;;;;;28.44;42.71;101755.41;5054154;28;45581;-73
2023/08/22 08:04:51;;;;;;;;;8.00;5.33;;;;;28.44;42.75;101761.69;5052898;27;45659;-74
2023/08/22 08:07:16;;;;;;;;;7.67;5.00;;;;;28.48;43.31;101764.94;5052133;28;45474;-71
2023/08/22 08:09:42;;;;;;;;;4.33;3.00;;;;;28.52;43.15;101774.47;5053030;28;46086;-71
2023/08/22 08:12:07;;;;;;;;;4.00;4.00;;;;;28.53;42.79;101768.81;5049217;28;45680;-71
2023/08/22 08:14:33;;;;;;;;;3.00;3.00;;;;;28.58;43.29;101757.38;5051893;28;45507;-71
2023/08/22 08:16:58;;;;;;;;;4.00;4.00;;;;;28.61;43.35;101762.47;5052362;28;45684;-71
2023/08/22 08:19:24;;;;;;;;;3.67;3.33;;;;;28.65;42.80;101766.56;5053250;28;46384;-71
2023/08/22 08:21:49;;;;;;;;;5.33;3.00;;;;;28.71;43.17;101765.00;5052859;28;45431;-71
2023/08/22 08:24:15;;;;;;;;;4.00;3.00;;;;;28.70;42.38;101765.16;5053121;28;45682;-71
2023/08/22 08:26:40;;;;;;;;;2.00;2.00;;;;;28.78;42.96;101765.97;5041334;28;45361;-71
2023/08/22 08:29:06;;;;;;;;;5.00;3.33;;;;;28.81;42.59;101775.69;5049344;28;45746;-68
2023/08/22 08:31:31;;;;;;;;;3.00;2.67;;;;;28.83;42.89;101773.63;5051686;28;58458;-73
2023/08/22 08:33:57;;;;;;;;;4.00;2.67;;;;;28.87;42.75;101766.78;5051301;28;45411;-74
2023/08/22 08:36:22;;;;;;;;;3.00;3.00;;;;;28.91;42.71;101772.75;5052797;28;45810;-72
2023/08/22 08:38:47;;;;;;;;;4.00;3.00;;;;;28.96;42.77;101772.22;5053024;28;46127;-73
2023/08/22 08:41:13;;;;;;;;;4.67;3.00;;;;;29.00;42.68;101771.69;5049587;28;45883;-73
2023/08/22 08:43:39;;;;;;;;;4.00;4.00;;;;;29.06;43.29;101762.75;5051049;28;45782;-74
2023/08/22 08:46:06;;;;;;;;;4.33;3.00;;;;;29.11;43.10;101770.41;5048916;28;45476;-76
2023/08/22 08:48:33;;;;;;;;;4.00;4.00;;;;;29.14;42.59;101763.72;5045991;28;46325;-76
2023/08/22 08:51:02;;;;;;;;;3.00;3.00;;;;;29.19;42.96;101764.03;5054955;27;45426;-76
2023/08/22 08:53:28;;;;;;;;;5.67;5.67;;;;;29.22;42.82;101766.38;5050606;28;45713;-75
2023/08/22 08:55:53;;;;;;;;;5.00;4.00;;;;;29.25;42.55;101763.28;5049721;28;45617;-75
2023/08/22 08:58:18;;;;;;;;;1.00;1.00;;;;;29.27;42.66;101758.50;5051938;28;46362;-75
2023/08/22 09:00:45;;;;;;;;;7.67;6.00;;;;;29.28;42.58;101752.00;5051554;28;46658;-75
2023/08/22 09:03:11;;;;;;;;;5.67;4.67;;;;;29.35;42.63;101757.59;5052132;28;45804;-75
2023/08/22 09:05:37;;;;;;;;;4.33;4.33;;;;;29.37;42.44;101757.38;5051885;28;45734;-74
2023/08/22 09:08:19;;;;;;;;;4.33;4.33;;;;;29.40;42.40;101755.16;5049964;28;45440;-75
2023/08/22 09:10:50;;;;;;;;;5.33;3.67;;;;;29.42;42.54;101753.06;5052096;28;45459;-75
2023/08/22 09:13:23;;;;;;;;;5.33;4.67;;;;;29.45;42.49;101757.31;5051276;28;46624;-75
2023/08/22 09:15:49;;;;;;;;;4.00;4.00;;;;;29.47;42.40;101749.78;5040207;28;45559;-76
2023/08/22 09:18:14;;;;;;;;;5.33;4.00;;;;;29.51;42.40;101747.56;5051184;28;48193;-76
2023/08/22 09:20:45;;;;;;;;;4.00;3.00;;;;;29.53;42.79;101749.09;5050286;28;45627;-75
2023/08/22 09:23:19;;;;;;;;;5.33;4.33;;;;;29.55;42.43;101754.38;5051814;28;45742;-76
2023/08/22 09:25:44;;;;;;;;;4.67;4.67;;;;;29.55;42.38;101748.91;5038566;28;45378;-74
2023/08/22 09:28:10;;;;;;;;;6.33;4.67;;;;;29.58;42.28;101749.38;5045068;28;51513;-74
2023/08/22 09:30:36;;;;;;;;;3.67;3.67;;;;;29.62;42.92;101749.00;5033497;28;45379;-73
2023/08/22 09:33:01;;;;;;;;;7.00;4.00;;;;;29.64;42.46;101747.78;5041093;28;45658;-74
2023/08/22 09:35:32;;;;;;;;;5.67;5.67;;;;;29.68;42.30;101746.34;5038459;28;45653;-73
2023/08/22 09:38:05;;;;;;;;;5.00;5.00;;;;;29.71;42.40;101748.72;5045039;28;46426;-73
2023/08/22 09:40:31;;;;;;;;;4.00;4.00;;;;;29.74;42.48;101742.03;5048267;28;45504;-73
2023/08/22 09:42:56;;;;;;;;;4.00;4.00;;;;;29.77;42.41;101751.75;5046423;28;45367;-74
2023/08/22 09:45:22;;;;;;;;;2.00;2.00;;;;;29.80;42.41;101745.91;5047094;28;45495;-72
2023/08/22 09:47:50;;;;;;;;;10.33;6.00;;;;;29.83;42.33;101737.31;5050617;28;45907;-72
2023/08/22 09:50:18;;;;;;;;;5.33;5.33;;;;;29.84;42.15;101744.50;5051820;28;45447;-74
2023/08/22 09:52:44;;;;;;;;;4.67;4.00;;;;;29.83;41.95;101743.66;5051279;28;45516;-75
2023/08/22 09:55:10;;;;;;;;;3.67;3.00;;;;;29.84;42.22;101736.28;5048991;28;45654;-75
2023/08/22 09:57:37;;;;;;;;;4.00;3.00;;;;;29.83;42.24;101740.03;5045197;28;46298;-75
2023/08/22 10:00:05;;;;;;;;;5.67;4.67;;;;;29.81;42.25;101742.13;5045643;28;45462;-76
2023/08/22 10:02:32;;;;;;;;;5.67;5.33;;;;;29.79;42.29;101736.84;5048842;28;45723;-75
2023/08/22 10:04:59;;;;;;;;;3.67;3.33;;;;;29.81;42.37;101732.06;5047926;28;45348;-75
2023/08/22 10:07:24;;;;;;;;;3.33;3.33;;;;;29.84;42.40;101736.28;5045992;28;46044;-74
2023/08/22 10:09:50;;;;;;;;;5.67;5.00;;;;;29.85;42.43;101733.38;5048601;28;45720;-74
2023/08/22 10:12:17;;;;;;;;;3.67;3.67;;;;;29.85;42.62;101732.53;5044861;28;45873;-74
2023/08/22 10:14:52;;;;;;;;;6.00;4.00;;;;;29.87;42.25;101735.91;5044497;28;45526;-74
2023/08/22 10:17:18;;;;;;;;;4.33;4.00;;;;;29.88;42.33;101734.88;5047081;28;45462;-74
2023/08/22 10:19:44;;;;;;;;;4.00;3.00;;;;;29.90;42.58;101731.94;5045422;28;45707;-74
2023/08/22 10:22:12;;;;;;;;;4.33;4.00;;;;;29.92;42.31;101730.72;5052284;28;45829;-74
2023/08/22 10:24:38;;;;;;;;;5.00;5.00;;;;;29.92;42.43;101717.03;5056662;28;45605;-74
2023/08/22 10:27:09;;;;;;;;;3.00;3.00;;;;;29.94;42.32;101722.31;5051616;28;45976;-73
2023/08/22 10:29:34;;;;;;;;;4.33;2.67;;;;;29.95;42.22;101733.09;5051548;28;45797;-73
2023/08/22 10:32:00;;;;;;;;;3.67;2.67;;;;;29.95;42.22;101730.34;5052724;28;45940;-73
2023/08/22 10:34:26;;;;;;;;;5.67;5.33;;;;;29.95;42.44;101724.88;5048761;28;45682;-73
2023/08/22 10:37:00;;;;;;;;;6.00;5.33;;;;;29.94;42.31;101725.91;5051671;28;45927;-73
2023/08/22 10:39:43;;;;;;;;;3.00;3.00;;;;;29.94;42.03;101720.44;5050178;28;45493;-73
2023/08/22 10:42:21;;;;;;;;;4.00;3.00;;;;;29.95;42.35;101722.13;5052270;28;45717;-73
2023/08/22 10:44:51;;;;;;;;;4.33;3.00;;;;;29.97;42.18;101722.81;5051457;28;45496;-73
2023/08/22 10:47:22;;;;;;;;;3.00;3.00;;;;;29.98;42.19;101719.03;5052147;28;46257;-73
2023/08/22 10:49:49;;;;;;;;;3.00;3.00;;;;;30.01;42.33;101720.53;5053328;28;45416;-73
2023/08/22 10:52:16;;;;;;;;;3.00;3.00;;;;;30.04;42.18;101711.94;5051635;28;45752;-75
2023/08/22 10:55:01;;;;;;;;;3.00;3.00;;;;;30.05;42.35;101710.06;5053324;28;45536;-74
2023/08/22 10:57:33;;;;;;;;;3.67;3.33;;;;;30.05;42.59;101708.19;5050800;28;45689;-74
2023/08/22 10:59:59;;;;;;;;;3.00;3.00;;;;;30.05;42.52;101721.00;5048745;28;45636;-76
2023/08/22 11:02:35;;;;;;;;;3.00;3.00;;;;;30.06;42.69;101718.09;5047218;28;45564;-74
2023/08/22 11:05:05;;;;;;;;;6.00;4.00;;;;;30.09;42.04;101714.13;5051850;28;45578;-75
2023/08/22 11:07:31;;;;;;;;;4.00;2.00;;;;;30.13;42.32;101711.88;5053206;28;46073;-75
2023/08/22 11:09:59;;;;;;;;;2.33;2.33;;;;;30.14;41.90;101714.41;5054409;28;45415;-75
2023/08/22 11:12:27;;;;;;;;;5.00;3.33;;;;;30.16;42.09;101716.97;5054654;28;45316;-75
2023/08/22 11:14:54;;;;;;;;;3.33;3.33;;;;;30.15;41.79;101710.63;5054586;28;45480;-75
2023/08/22 11:17:21;;;;;;;;;4.00;3.00;;;;;30.16;41.96;101706.84;5052052;28;45963;-75
2023/08/22 11:19:48;;;;;;;;;3.00;3.00;;;;;30.15;42.09;101710.63;5052914;28;45496;-75
2023/08/22 11:22:14;;;;;;;;;2.67;2.67;;;;;30.16;42.24;101703.28;5053649;28;45435;-75
2023/08/22 11:24:44;;;;;;;;;3.00;3.00;;;;;30.16;42.20;101700.56;5054139;28;45835;-75
2023/08/22 11:27:11;;;;;;;;;3.00;3.00;;;;;30.15;41.84;101699.69;5053429;28;45359;-75
2023/08/22 11:29:43;;;;;;;;;3.00;3.00;;;;;30.18;42.01;101695.72;5052781;28;45478;-75
2023/08/22 11:32:24;;;;;;;;;4.33;2.67;;;;;30.19;42.09;101694.66;5045934;28;45535;-75
2023/08/22 11:35:06;;;;;;;;;3.33;3.00;;;;;30.19;41.91;101697.41;5053722;28;45429;-75
2023/08/22 11:37:33;;;;;;;;;3.00;3.00;;;;;30.19;41.88;101694.66;5054259;28;45423;-75
2023/08/22 11:39:59;;;;;;;;;2.00;2.00;;;;;30.19;42.31;101695.53;5053808;28;45463;-75
2023/08/22 11:42:26;;;;;;;;;4.00;4.00;;;;;30.19;42.08;101691.94;5051584;28;45369;-74
2023/08/22 11:44:58;;;;;;;;;3.00;3.00;;;;;30.18;42.21;101693.84;5051954;28;45694;-75
2023/08/22 11:47:23;;;;;;;;;0.00;0.00;;;;;30.18;42.19;101692.97;5039998;28;45486;-75
2023/08/22 11:49:49;;;;;;;;;2.33;2.33;;;;;30.19;42.16;101691.94;5051374;28;48123;-75
2023/08/22 11:52:15;;;;;;;;;1.33;1.33;;;;;30.17;42.19;101689.41;5053653;28;45359;-75
2023/08/22 11:54:44;;;;;;;;;3.33;3.00;;;;;30.19;42.12;101679.09;5052744;28;45489;-74
2023/08/22 11:57:10;;;;;;;;;2.00;2.00;;;;;30.22;42.08;101691.56;5049908;28;46377;-74
2023/08/22 11:59:36;;;;;;;;;4.67;2.67;;;;;30.24;41.94;101686.72;5052055;28;45436;-74
2023/08/22 12:02:01;;;;;;;;;3.00;3.00;;;;;30.25;42.13;101685.72;5051918;28;45826;-75
2023/08/22 12:04:40;;;;;;;;;2.67;2.67;;;;;30.27;41.78;101685.53;5051487;28;45401;-75
2023/08/22 12:07:05;;;;;;;;;3.00;3.00;;;;;30.27;41.87;101680.06;5051336;28;46165;-74
2023/08/22 12:09:31;;;;;;;;;6.00;4.00;;;;;30.27;42.13;101683.63;5045917;28;54037;-74
2023/08/22 12:12:11;;;;;;;;;4.33;3.00;;;;;30.25;42.66;101680.25;5048727;28;45606;-72
2023/08/22 12:14:37;;;;;;;;;5.67;4.33;;;;;30.15;43.01;101685.16;5049098;28;45568;-74
2023/08/22 12:17:02;;;;;;;;;2.00;2.00;;;;;30.05;43.29;101683.53;5051689;28;45477;-76
2023/08/22 12:19:28;;;;;;;;;3.00;3.00;;;;;29.98;43.74;101682.59;5048894;28;45558;-75
2023/08/22 12:21:54;;;;;;;;;3.00;3.00;;;;;29.92;43.60;101675.16;5050735;28;45468;-75
2023/08/22 12:24:19;;;;;;;;;4.33;3.00;;;;;29.88;43.75;101682.91;5045678;28;45697;-76
2023/08/22 12:26:44;;;;;;;;;4.00;2.00;;;;;29.83;44.55;101667.03;5048805;28;46450;-75
2023/08/22 12:29:10;;;;;;;;;4.67;3.33;;;;;29.82;44.42;101676.28;5048523;28;45446;-74
2023/08/22 12:31:35;;;;;;;;;5.00;3.00;;;;;29.79;44.64;101671.19;5050140;28;50665;-75
2023/08/22 12:34:00;;;;;;;;;3.33;3.33;;;;;29.78;44.86;101669.50;5049408;28;48765;-74
2023/08/22 12:36:25;;;;;;;;;3.67;2.33;;;;;29.77;44.39;101661.47;5048610;28;49752;-75
2023/08/22 12:38:51;;;;;;;;;7.00;4.00;;;;;29.77;44.68;101673.28;5049560;28;45517;-75
2023/08/22 12:41:16;;;;;;;;;4.00;2.00;;;;;29.77;44.46;101665.06;5049708;28;45600;-75
2023/08/22 12:43:41;;;;;;;;;2.33;2.33;;;;;29.75;44.46;101663.56;5050700;28;47339;-73
2023/08/22 12:46:07;;;;;;;;;2.33;2.33;;;;;29.76;44.72;101660.63;5047848;28;46114;-72
2023/08/22 12:48:35;;;;;;;;;5.00;4.00;;;;;29.75;44.51;101652.59;5045149;28;45460;-74
2023/08/22 12:51:00;;;;;;;;;2.33;2.33;;;;;29.74;44.51;101662.69;5052864;28;45557;-74
2023/08/22 12:53:26;;;;;;;;;0.00;0.00;;;;;29.74;44.88;101664.59;5050377;28;45366;-74
2023/08/22 12:55:51;;;;;;;;;3.00;1.67;;;;;29.72;44.84;101653.84;5051181;28;45854;-73
2023/08/22 12:58:16;;;;;;;;;3.00;3.00;;;;;29.68;44.72;101650.59;5050748;28;45500;-75
2023/08/22 13:00:42;;;;;;;;;3.00;2.00;;;;;29.69;44.87;101646.84;5051007;28;45486;-72
2023/08/22 13:03:08;;;;;;;;;1.00;1.00;;;;;29.69;45.17;101656.94;5047732;28;49455;-74
2023/08/22 13:05:34;;;;;;;;;3.33;2.00;;;;;29.67;45.04;101643.44;5050567;28;47132;-73
2023/08/22 13:07:59;;;;;;;;;3.00;3.00;;;;;29.66;45.01;101644.50;5050590;28;45540;-74
2023/08/22 13:10:25;;;;;;;;;2.67;2.00;;;;;29.65;45.10;101641.94;5050357;28;45559;-72
2023/08/22 13:12:50;;;;;;;;;4.33;3.00;;;;;29.63;44.91;101635.81;5048934;28;45337;-73
2023/08/22 13:15:16;;;;;;;;;2.00;2.00;;;;;29.64;44.96;101642.97;5048833;28;46062;-74
2023/08/22 13:17:41;;;;;;;;;1.00;1.00;;;;;29.65;45.01;101639.19;5050980;28;45452;-74
2023/08/22 13:20:07;;;;;;;;;2.67;2.33;;;;;29.68;44.72;101631.47;5046932;28;45516;-74
2023/08/22 13:22:33;;;;;;;;;3.67;3.00;;;;;29.70;45.07;101634.00;5050566;28;45906;-74
2023/08/22 13:24:58;;;;;;;;;3.00;3.00;;;;;29.72;45.11;101631.94;5048505;28;45829;-73
2023/08/22 13:27:23;;;;;;;;;4.00;2.00;;;;;29.75;45.09;101636.19;5047016;28;51813;-72
2023/08/22 13:29:53;;;;;;;;;1.67;1.67;;;;;29.77;45.41;101634.09;5049358;28;45692;-73
2023/08/22 13:32:18;;;;;;;;;4.00;3.00;;;;;29.76;45.03;101629.69;5048486;28;45419;-73
2023/08/22 13:34:43;;;;;;;;;2.00;1.67;;;;;29.77;44.82;101621.28;5050891;28;45670;-73
2023/08/22 13:37:09;;;;;;;;;3.00;3.00;;;;;29.78;45.16;101625.72;5048966;28;45519;-73
2023/08/22 13:39:34;;;;;;;;;4.00;4.00;;;;;29.82;45.01;101615.22;5043861;28;45494;-71
2023/08/22 13:41:59;;;;;;;;;2.67;2.67;;;;;29.82;44.97;101618.81;5048372;28;45728;-71
2023/08/22 13:44:24;;;;;;;;;2.00;2.00;;;;;29.83;44.78;101612.31;5046576;28;60990;-71
2023/08/22 13:46:50;;;;;;;;;3.00;3.00;;;;;29.83;45.37;101617.78;5038604;28;45605;-71
2023/08/22 13:49:15;;;;;;;;;4.00;2.00;;;;;29.83;44.96;101608.72;5047912;28;45492;-71
2023/08/22 13:51:41;;;;;;;;;3.67;2.00;;;;;29.83;45.31;101608.72;5047415;28;45569;-72
2023/08/22 13:54:06;;;;;;;;;4.00;3.00;;;;;29.84;45.44;101611.25;5049281;28;47888;-71
2023/08/22 13:56:31;;;;;;;;;2.33;2.33;;;;;29.83;45.36;101608.72;5051758;28;45530;-72
2023/08/22 13:58:57;;;;;;;;;2.00;2.00;;;;;29.87;45.27;101603.72;5049524;28;45482;-74
2023/08/22 14:01:22;;;;;;;;;2.67;2.67;;;;;29.91;45.27;101602.31;5055086;28;45438;-72
2023/08/22 14:03:48;;;;;;;;;3.00;2.33;;;;;29.92;45.38;101602.09;5050513;28;56519;-71
2023/08/22 14:06:14;;;;;;;;;2.00;2.00;;;;;29.92;45.21;101595.78;5051979;28;45682;-71
2023/08/22 14:08:39;;;;;;;;;4.00;3.00;;;;;29.92;45.71;101599.34;5053267;28;45473;-71
2023/08/22 14:11:06;;;;;;;;;2.67;2.00;;;;;29.92;45.38;101601.25;5053250;28;45847;-71
2023/08/22 14:13:33;;;;;;;;;1.33;1.33;;;;;29.94;45.71;101601.91;5051304;28;46549;-71
2023/08/22 14:15:58;;;;;;;;;4.67;1.67;;;;;29.97;45.78;101601.53;5052562;28;46998;-71
2023/08/22 14:18:24;;;;;;;;;2.00;2.00;;;;;30.01;45.56;101602.00;5049435;28;45522;-72
2023/08/22 14:20:49;;;;;;;;;3.67;2.00;;;;;30.02;45.61;101599.06;5051688;28;45566;-72
2023/08/22 14:23:14;;;;;;;;;4.33;2.67;;;;;30.04;45.48;101605.19;5052323;28;45467;-72
2023/08/22 14:25:40;;;;;;;;;3.00;1.67;;;;;30.04;45.72;101599.72;5052555;28;45495;-72
2023/08/22 14:28:06;;;;;;;;;3.00;1.33;;;;;30.09;45.96;101588.19;5053698;28;45423;-72
2023/08/22 14:30:32;;;;;;;;;3.00;2.00;;;;;30.10;45.77;101589.91;5054174;28;45399;-70
2023/08/22 14:32:57;;;;;;;;;2.00;2.00;;;;;30.08;45.79;101591.97;5047789;28;45961;-71
2023/08/22 14:35:23;;;;;;;;;3.00;3.00;;;;;30.11;45.85;101583.41;5052156;28;51604;-71
2023/08/22 14:37:49;;;;;;;;;2.00;2.00;;;;;30.11;45.73;101583.41;5054792;28;45563;-71
2023/08/22 14:40:14;;;;;;;;;3.33;3.33;;;;;30.12;46.27;101585.13;5051192;28;45921;-71
2023/08/22 14:42:39;;;;;;;;;4.00;2.00;;;;;30.13;45.96;101589.53;5052215;28;45944;-72
2023/08/22 14:45:05;;;;;;;;;4.67;3.00;;;;;30.16;45.88;101588.31;5051891;28;52602;-72
2023/08/22 14:47:30;;;;;;;;;1.00;1.00;;;;;30.18;45.98;101581.59;5050719;28;45438;-71
2023/08/22 14:49:56;;;;;;;;;2.67;2.33;;;;;30.17;45.64;101585.38;5049762;28;47059;-71
2023/08/22 14:52:21;;;;;;;;;3.00;3.00;;;;;30.18;45.66;101586.22;5054537;28;46125;-72
2023/08/22 14:54:46;;;;;;;;;2.00;2.00;;;;;30.17;45.46;101579.91;5051808;28;56998;-72
2023/08/22 14:57:12;;;;;;;;;3.33;3.33;;;;;30.18;45.67;101586.22;5049679;28;45536;-72
2023/08/22 14:59:37;;;;;;;;;4.33;4.33;;;;;30.20;45.48;101587.72;5052437;28;45529;-73
2023/08/22 15:02:03;;;;;;;;;2.00;2.00;;;;;30.21;45.47;101591.31;5051093;28;46992;-73
2023/08/22 15:04:28;;;;;;;;;2.33;2.33;;;;;30.20;45.69;101587.72;5051513;28;45620;-73
2023/08/22 15:06:53;;;;;;;;;2.00;2.00;;;;;30.22;45.43;101585.66;5053504;28;45470;-73
2023/08/22 15:09:19;;;;;;;;;3.00;3.00;;;;;30.24;45.42;101585.44;5062829;28;45717;-73
2023/08/22 15:11:44;;;;;;;;;3.00;3.00;;;;;30.23;45.36;101584.59;5048839;28;46170;-73
2023/08/22 15:14:10;;;;;;;;;3.00;3.00;;;;;30.21;45.30;101586.66;5049221;28;45466;-73
2023/08/22 15:16:35;;;;;;;;;3.00;3.00;;;;;30.18;45.30;101583.47;5043898;28;45482;-73
2023/08/22 15:19:07;;;;;;;;;3.00;3.00;;;;;30.16;45.38;101586.41;5048288;28;45666;-72
2023/08/22 15:21:32;;;;;;;;;1.00;0.67;;;;;30.14;45.19;101584.91;5035187;28;47337;-73
2023/08/22 15:23:58;;;;;;;;;3.00;2.00;;;;;30.10;45.25;101588.00;5049014;28;49024;-73
2023/08/22 15:26:23;;;;;;;;;4.00;3.67;;;;;30.11;45.30;101587.00;5045648;28;45747;-73
2023/08/22 15:28:48;;;;;;;;;3.00;3.00;;;;;30.10;45.32;101581.69;5046162;28;49424;-73
2023/08/22 15:31:13;;;;;;;;;2.00;2.00;;;;;30.07;44.99;101574.69;5051187;28;45994;-73
2023/08/22 15:33:39;;;;;;;;;2.33;2.33;;;;;30.06;45.56;101574.88;5039756;28;57810;-73
2023/08/22 15:36:04;;;;;;;;;3.00;3.00;;;;;30.04;45.49;101574.25;5036232;28;57237;-74
2023/08/22 15:38:32;;;;;;;;;6.00;2.00;;;;;30.07;45.34;101571.09;5047525;28;46033;-75
2023/08/22 15:40:57;;;;;;;;;3.00;3.00;;;;;30.10;45.48;101576.22;5041483;28;46207;-74
2023/08/22 15:43:23;;;;;;;;;4.33;2.33;;;;;30.13;45.17;101572.25;5049085;28;45931;-74
2023/08/22 15:45:49;;;;;;;;;2.00;2.00;;;;;30.15;45.37;101568.28;5038056;28;45501;-74
2023/08/22 15:48:15;;;;;;;;;2.67;2.67;;;;;30.17;45.51;101562.63;5050305;28;45638;-73
2023/08/22 15:50:41;;;;;;;;;1.67;1.67;;;;;30.18;45.03;101570.66;5046167;28;45786;-71
2023/08/22 15:53:07;;;;;;;;;1.67;1.67;;;;;30.19;45.58;101566.00;5050364;28;45519;-73
2023/08/22 15:55:32;;;;;;;;;2.00;2.00;;;;;30.20;45.46;101565.81;5051154;28;45655;-73
2023/08/22 15:57:59;;;;;;;;;1.00;1.00;;;;;30.21;45.54;101564.75;5052096;28;45984;-75
2023/08/22 16:00:25;;;;;;;;;4.00;2.67;;;;;30.21;45.42;101561.19;5048390;28;47339;-75
2023/08/22 16:02:51;;;;;;;;;3.00;3.00;;;;;30.20;45.39;101571.28;5049015;28;45514;-74
2023/08/22 16:05:16;;;;;;;;;4.00;4.00;;;;;30.22;45.35;101566.47;5049910;28;45853;-74
2023/08/22 16:07:42;;;;;;;;;3.00;3.00;;;;;30.28;45.26;101566.75;5048688;28;46094;-73
2023/08/22 16:10:29;;;;;;;;;4.00;4.00;;;;;30.37;45.49;101558.19;5038519;28;45587;-73
2023/08/22 16:12:55;;;;;;;;;6.67;3.00;;;;;30.44;45.09;101555.53;5062809;27;46338;-73
2023/08/22 16:15:20;;;;;;;;;5.33;4.00;;;;;30.51;44.84;101552.84;5038716;28;45700;-73
2023/08/22 16:17:45;;;;;;;;;3.00;3.00;;;;;30.57;45.07;101552.06;5049338;28;45835;-73
2023/08/22 16:20:11;;;;;;;;;6.00;3.00;;;;;30.62;44.83;101554.22;5046951;28;54312;-73
2023/08/22 16:22:37;;;;;;;;;6.00;3.67;;;;;30.64;44.91;101550.22;5043817;28;45451;-74
2023/08/22 16:25:02;;;;;;;;;4.00;4.00;;;;;30.69;44.76;101557.00;5052309;28;45409;-73
2023/08/22 16:27:27;;;;;;;;;3.00;3.00;;;;;30.71;44.55;101547.59;5050632;28;45738;-73
2023/08/22 16:29:53;;;;;;;;;5.00;5.00;;;;;30.75;44.64;101553.50;5049191;28;45784;-73
2023/08/22 16:32:18;;;;;;;;;4.67;4.00;;;;;30.75;44.53;101548.03;5049912;28;45640;-74
2023/08/22 16:34:44;;;;;;;;;5.33;4.00;;;;;30.76;44.50;101545.09;5048389;28;45407;-73
2023/08/22 16:37:09;;;;;;;;;5.33;3.67;;;;;30.79;44.50;101549.31;5050697;28;45635;-72
2023/08/22 16:39:34;;;;;;;;;4.33;3.33;;;;;30.80;44.21;101552.88;5046654;28;53935;-72
2023/08/22 16:42:00;;;;;;;;;3.00;3.00;;;;;30.81;44.29;101549.13;5049976;28;46537;-73
2023/08/22 16:44:25;;;;;;;;;4.00;4.00;;;;;30.81;44.52;101543.66;5046157;28;47949;-73
2023/08/22 16:46:50;;;;;;;;;3.67;3.00;;;;;30.81;44.54;101543.66;5050352;28;45351;-73
2023/08/22 16:49:15;;;;;;;;;3.33;3.33;;;;;30.81;44.15;101552.69;5051557;28;46150;-73
2023/08/22 16:51:41;;;;;;;;;3.33;3.33;;;;;30.81;44.75;101547.22;5036087;28;45579;-73
2023/08/22 16:54:08;;;;;;;;;6.67;5.00;;;;;30.83;44.75;101547.88;5040815;28;45564;-74